sensor_id;sensor_type;location;lat;lon;timestamp;pressure;altitude;pressure_sealevel;temperature;humidity
7990;BME280;4040;42.848;23.034;2023-04-07T00:03:26;94648.44;;;0.52;100.00
7990;BME280;4040;42.848;23.034;2023-04-07T00:13:38;94649.03;;;0.61;100.00
7990;BME280;4040;42.848;23.034;2023-04-07T00:19:27;94651.00;;;0.64;100.00
7990;BME280;4040;42.848;23.034;2023-04-07T00:25:16;94635.97;;;0.68;100.00
7990;BME280;4040;42.848;23.034;2023-04-07T00:31:06;94646.91;;;0.82;100.00
7990;BME280;4040;42.848;23.034;2023-04-07T00:36:54;94641.44;;;0.75;100.00
7990;BME280;4040;42.848;23.034;2023-04-07T00:42:43;94637.31;;;0.93;100.00
7990;BME280;4040;42.848;23.034;2023-04-07T00:48:34;94640.38;;;0.95;100.00
7990;BME280;4040;42.848;23.034;2023-04-07T00:54:24;94631.47;;;1.03;100.00
7990;BME280;4040;42.848;23.034;2023-04-07T01:00:13;94635.72;;;1.23;100.00
7990;BME280;4040;42.848;23.034;2023-04-07T01:06:05;94640.31;;;1.26;100.00
7990;BME280;4040;42.848;23.034;2023-04-07T01:16:23;94639.53;;;0.91;100.00
7990;BME280;4040;42.848;23.034;2023-04-07T01:22:17;94633.63;;;0.98;100.00
7990;BME280;4040;42.848;23.034;2023-04-07T01:28:24;94627.28;;;1.02;100.00
7990;BME280;4040;42.848;23.034;2023-04-07T01:34:21;94629.78;;;0.95;100.00
7990;BME280;4040;42.848;23.034;2023-04-07T01:40:11;94604.84;;;0.65;100.00
7990;BME280;4040;42.848;23.034;2023-04-07T01:46:00;94626.81;;;0.81;100.00
7990;BME280;4040;42.848;23.034;2023-04-07T01:51:52;94627.88;;;1.11;100.00
7990;BME280;4040;42.848;23.034;2023-04-07T01:57:42;94618.44;;;1.14;100.00
7990;BME280;4040;42.848;23.034;2023-04-07T02:03:35;94610.97;;;1.00;100.00
7990;BME280;4040;42.848;23.034;2023-04-07T02:09:30;94621.16;;;1.17;100.00
7990;BME280;4040;42.848;23.034;2023-04-07T02:19:42;94614.41;;;1.20;100.00
7990;BME280;4040;42.848;23.034;2023-04-07T02:25:33;94600.78;;;1.02;100.00
7990;BME280;4040;42.848;23.034;2023-04-07T02:31:24;94614.63;;;1.11;100.00
7990;BME280;4040;42.848;23.034;2023-04-07T02:37:13;94600.50;;;1.07;100.00
7990;BME280;4040;42.848;23.034;2023-04-07T02:43:03;94608.81;;;1.25;100.00
7990;BME280;4040;42.848;23.034;2023-04-07T02:48:52;94601.50;;;1.18;100.00
7990;BME280;4040;42.848;23.034;2023-04-07T02:54:41;94615.47;;;1.00;100.00
7990;BME280;4040;42.848;23.034;2023-04-07T03:00:32;94601.06;;;0.82;100.00
7990;BME280;4040;42.848;23.034;2023-04-07T03:06:21;94530.97;;;0.29;100.00
7990;BME280;4040;42.848;23.034;2023-04-07T03:12:09;94606.84;;;0.87;100.00
7990;BME280;4040;42.848;23.034;2023-04-07T03:22:21;94616.56;;;1.14;100.00
7990;BME280;4040;42.848;23.034;2023-04-07T03:28:10;94605.69;;;1.19;100.00
7990;BME280;4040;42.848;23.034;2023-04-07T03:33:59;94619.81;;;1.23;100.00
7990;BME280;4040;42.848;23.034;2023-04-07T03:39:49;94622.31;;;1.35;100.00
7990;BME280;4040;42.848;23.034;2023-04-07T03:45:38;94629.44;;;1.50;100.00
7990;BME280;4040;42.848;23.034;2023-04-07T03:51:27;94617.66;;;1.29;100.00
7990;BME280;4040;42.848;23.034;2023-04-07T03:57:17;94639.50;;;1.60;100.00
7990;BME280;4040;42.848;23.034;2023-04-07T04:03:06;94636.03;;;1.75;100.00
7990;BME280;4040;42.848;23.034;2023-04-07T04:08:55;94636.16;;;1.82;100.00
7990;BME280;4040;42.848;23.034;2023-04-07T04:14:45;94641.91;;;1.84;100.00
7990;BME280;4040;42.848;23.034;2023-04-07T04:24:55;94644.41;;;1.96;100.00
7990;BME280;4040;42.848;23.034;2023-04-07T04:30:46;94650.53;;;2.19;100.00
7990;BME280;4040;42.848;23.034;2023-04-07T04:36:34;94655.28;;;2.29;100.00
7990;BME280;4040;42.848;23.034;2023-04-07T04:42:22;94651.16;;;2.54;100.00
7990;BME280;4040;42.848;23.034;2023-04-07T04:48:14;94659.56;;;2.56;100.00
7990;BME280;4040;42.848;23.034;2023-04-07T04:54:03;94665.94;;;2.74;100.00
7990;BME280;4040;42.848;23.034;2023-04-07T04:59:52;94668.19;;;2.72;100.00
7990;BME280;4040;42.848;23.034;2023-04-07T05:05:46;94668.59;;;2.96;100.00
7990;BME280;4040;42.848;23.034;2023-04-07T05:11:35;94675.84;;;3.22;100.00
7990;BME280;4040;42.848;23.034;2023-04-07T05:17:24;94681.38;;;3.36;100.00
7990;BME280;4040;42.848;23.034;2023-04-07T05:27:36;94672.97;;;3.34;100.00
7990;BME280;4040;42.848;23.034;2023-04-07T05:33:24;94691.44;;;3.49;100.00
7990;BME280;4040;42.848;23.034;2023-04-07T05:39:13;94685.22;;;3.94;100.00
7990;BME280;4040;42.848;23.034;2023-04-07T05:45:04;94689.91;;;4.37;100.00
7990;BME280;4040;42.848;23.034;2023-04-07T05:50:53;94686.47;;;4.73;100.00
7990;BME280;4040;42.848;23.034;2023-04-07T05:56:42;94691.41;;;4.71;100.00
7990;BME280;4040;42.848;23.034;2023-04-07T06:02:33;94685.03;;;4.82;100.00
7990;BME280;4040;42.848;23.034;2023-04-07T06:08:21;94684.66;;;4.83;100.00
7990;BME280;4040;42.848;23.034;2023-04-07T06:14:10;94672.72;;;5.10;99.64
7990;BME280;4040;42.848;23.034;2023-04-07T06:20:01;94684.53;;;5.63;89.76
7990;BME280;4040;42.848;23.034;2023-04-07T06:30:11;94683.78;;;5.66;80.90
7990;BME280;4040;42.848;23.034;2023-04-07T06:36:02;94684.16;;;6.36;80.30
7990;BME280;4040;42.848;23.034;2023-04-07T06:41:51;94665.84;;;6.42;74.35
7990;BME280;4040;42.848;23.034;2023-04-07T06:47:39;94698.00;;;6.66;76.09
7990;BME280;4040;42.848;23.034;2023-04-07T06:53:30;94701.44;;;6.70;70.93
7990;BME280;4040;42.848;23.034;2023-04-07T06:59:18;94693.81;;;6.72;63.53
7990;BME280;4040;42.848;23.034;2023-04-07T07:05:17;94704.19;;;7.12;62.37
7990;BME280;4040;42.848;23.034;2023-04-07T07:11:28;94708.03;;;7.08;62.14
7990;BME280;4040;42.848;23.034;2023-04-07T07:17:16;94688.09;;;6.74;61.08
7990;BME280;4040;42.848;23.034;2023-04-07T07:23:05;94725.59;;;6.91;60.89
7990;BME280;4040;42.848;23.034;2023-04-07T07:32:58;94717.22;;;7.59;59.08
7990;BME280;4040;42.848;23.034;2023-04-07T07:38:48;94715.69;;;7.72;59.52
7990;BME280;4040;42.848;23.034;2023-04-07T07:44:37;94725.56;;;8.17;57.42
7990;BME280;4040;42.848;23.034;2023-04-07T07:50:28;94724.34;;;8.53;55.87
7990;BME280;4040;42.848;23.034;2023-04-07T07:56:17;94721.25;;;9.23;53.17
7990;BME280;4040;42.848;23.034;2023-04-07T08:02:06;94730.41;;;9.36;52.12
7990;BME280;4040;42.848;23.034;2023-04-07T08:07:56;94732.38;;;10.53;47.70
7990;BME280;4040;42.848;23.034;2023-04-07T08:13:46;94728.03;;;10.96;48.46
7990;BME280;4040;42.848;23.034;2023-04-07T08:19:35;94738.63;;;10.09;49.38
7990;BME280;4040;42.848;23.034;2023-04-07T08:25:25;94737.34;;;9.30;50.40
7990;BME280;4040;42.848;23.034;2023-04-07T08:35:26;94739.84;;;10.01;48.68
7990;BME280;4040;42.848;23.034;2023-04-07T08:41:23;94735.72;;;10.30;47.90
7990;BME280;4040;42.848;23.034;2023-04-07T08:47:15;94737.06;;;10.49;48.20
7990;BME280;4040;42.848;23.034;2023-04-07T08:53:07;94745.50;;;10.51;46.40
7990;BME280;4040;42.848;23.034;2023-04-07T08:59:01;94749.63;;;9.82;47.97
7990;BME280;4040;42.848;23.034;2023-04-07T09:04:50;94736.38;;;10.04;49.61
7990;BME280;4040;42.848;23.034;2023-04-07T09:10:39;94757.47;;;10.46;49.21
7990;BME280;4040;42.848;23.034;2023-04-07T09:16:29;94753.97;;;11.92;45.87
7990;BME280;4040;42.848;23.034;2023-04-07T09:22:33;94750.97;;;10.44;47.07
7990;BME280;4040;42.848;23.034;2023-04-07T09:28:22;94750.22;;;9.99;49.25
7990;BME280;4040;42.848;23.034;2023-04-07T09:38:36;94749.44;;;9.59;50.17
7990;BME280;4040;42.848;23.034;2023-04-07T09:44:25;94757.53;;;8.94;52.58
7990;BME280;4040;42.848;23.034;2023-04-07T09:50:14;94756.63;;;9.11;52.00
7990;BME280;4040;42.848;23.034;2023-04-07T09:56:05;94756.31;;;9.60;50.84
7990;BME280;4040;42.848;23.034;2023-04-07T10:01:54;94754.09;;;10.02;49.91
7990;BME280;4040;42.848;23.034;2023-04-07T10:07:42;94755.16;;;10.11;47.96
7990;BME280;4040;42.848;23.034;2023-04-07T10:13:35;94759.84;;;9.97;49.58
7990;BME280;4040;42.848;23.034;2023-04-07T10:19:24;94764.03;;;8.93;50.26
7990;BME280;4040;42.848;23.034;2023-04-07T10:25:17;94757.41;;;9.15;52.51
7990;BME280;4040;42.848;23.034;2023-04-07T10:31:08;94755.94;;;10.08;51.12
7990;BME280;4040;42.848;23.034;2023-04-07T10:41:34;94767.69;;;9.27;51.67
7990;BME280;4040;42.848;23.034;2023-04-07T10:47:25;94775.94;;;8.92;52.77
7990;BME280;4040;42.848;23.034;2023-04-07T10:53:14;94778.91;;;9.15;54.12
7990;BME280;4040;42.848;23.034;2023-04-07T10:59:13;94771.88;;;9.86;52.55
7990;BME280;4040;42.848;23.034;2023-04-07T11:05:05;94776.13;;;9.83;51.30
7990;BME280;4040;42.848;23.034;2023-04-07T11:10:54;94778.78;;;9.36;52.79
7990;BME280;4040;42.848;23.034;2023-04-07T11:16:43;94769.34;;;9.65;50.12
7990;BME280;4040;42.848;23.034;2023-04-07T11:22:33;94785.41;;;9.75;51.27
7990;BME280;4040;42.848;23.034;2023-04-07T11:28:23;94775.94;;;9.60;52.34
7990;BME280;4040;42.848;23.034;2023-04-07T11:34:12;94781.13;;;9.27;51.94
7990;BME280;4040;42.848;23.034;2023-04-07T11:44:24;94784.31;;;9.01;51.76
7990;BME280;4040;42.848;23.034;2023-04-07T11:50:13;94783.59;;;8.97;52.60
7990;BME280;4040;42.848;23.034;2023-04-07T11:56:03;94781.78;;;8.69;53.35
7990;BME280;4040;42.848;23.034;2023-04-07T12:01:53;94795.28;;;8.55;54.29
7990;BME280;4040;42.848;23.034;2023-04-07T12:07:52;94787.09;;;8.83;53.98
7990;BME280;4040;42.848;23.034;2023-04-07T12:13:41;94785.47;;;9.07;53.58
7990;BME280;4040;42.848;23.034;2023-04-07T12:19:32;94787.72;;;9.12;53.24
7990;BME280;4040;42.848;23.034;2023-04-07T12:25:20;94785.81;;;9.09;52.89
7990;BME280;4040;42.848;23.034;2023-04-07T12:31:09;94790.91;;;9.58;53.71
7990;BME280;4040;42.848;23.034;2023-04-07T12:36:59;94790.81;;;9.72;52.36
7990;BME280;4040;42.848;23.034;2023-04-07T12:47:09;94788.28;;;9.47;53.92
7990;BME280;4040;42.848;23.034;2023-04-07T12:53:00;94784.03;;;9.50;53.91
7990;BME280;4040;42.848;23.034;2023-04-07T12:58:51;94789.13;;;9.92;54.08
7990;BME280;4040;42.848;23.034;2023-04-07T13:04:40;94762.34;;;9.78;52.86
7990;BME280;4040;42.848;23.034;2023-04-07T13:10:34;94784.69;;;9.68;55.02
7990;BME280;4040;42.848;23.034;2023-04-07T13:16:22;94799.38;;;9.53;54.96
7990;BME280;4040;42.848;23.034;2023-04-07T13:22:11;94784.28;;;9.08;56.19
7990;BME280;4040;42.848;23.034;2023-04-07T13:28:02;94794.19;;;9.25;57.53
7990;BME280;4040;42.848;23.034;2023-04-07T13:33:50;94799.59;;;9.18;59.20
7990;BME280;4040;42.848;23.034;2023-04-07T13:39:39;94793.59;;;8.93;59.47
7990;BME280;4040;42.848;23.034;2023-04-07T13:49:51;94822.94;;;8.21;66.23
7990;BME280;4040;42.848;23.034;2023-04-07T13:55:39;94819.09;;;8.22;68.23
7990;BME280;4040;42.848;23.034;2023-04-07T14:01:28;94828.28;;;7.93;75.60
7990;BME280;4040;42.848;23.034;2023-04-07T14:07:18;94835.94;;;7.70;80.42
7990;BME280;4040;42.848;23.034;2023-04-07T14:13:08;94842.00;;;7.49;85.68
7990;BME280;4040;42.848;23.034;2023-04-07T14:18:56;94841.97;;;7.25;89.08
7990;BME280;4040;42.848;23.034;2023-04-07T14:24:47;94843.88;;;7.21;90.62
7990;BME280;4040;42.848;23.034;2023-04-07T14:30:35;94845.03;;;7.27;88.75
7990;BME280;4040;42.848;23.034;2023-04-07T14:36:25;94842.78;;;7.36;86.72
7990;BME280;4040;42.848;23.034;2023-04-07T14:42:15;94839.72;;;7.41;84.47
7990;BME280;4040;42.848;23.034;2023-04-07T14:52:25;94837.78;;;7.38;78.39
7990;BME280;4040;42.848;23.034;2023-04-07T14:58:16;94838.16;;;7.33;85.11
7990;BME280;4040;42.848;23.034;2023-04-07T15:04:04;94847.34;;;7.25;83.44
7990;BME280;4040;42.848;23.034;2023-04-07T15:09:53;94836.63;;;7.22;83.50
7990;BME280;4040;42.848;23.034;2023-04-07T15:15:44;94838.13;;;7.19;80.11
7990;BME280;4040;42.848;23.034;2023-04-07T15:21:33;94841.91;;;7.08;80.54
7990;BME280;4040;42.848;23.034;2023-04-07T15:27:21;94839.53;;;6.85;82.13
7990;BME280;4040;42.848;23.034;2023-04-07T15:33:12;94840.28;;;6.82;86.38
7990;BME280;4040;42.848;23.034;2023-04-07T15:39:01;94830.31;;;6.76;88.95
7990;BME280;4040;42.848;23.034;2023-04-07T15:44:51;94869.34;;;6.80;82.98
7990;BME280;4040;42.848;23.034;2023-04-07T15:55:04;94864.38;;;6.82;85.67
7990;BME280;4040;42.848;23.034;2023-04-07T16:00:53;94873.97;;;6.83;86.23
7990;BME280;4040;42.848;23.034;2023-04-07T16:06:42;94878.47;;;6.72;86.73
7990;BME280;4040;42.848;23.034;2023-04-07T16:12:32;94862.38;;;6.62;89.32
7990;BME280;4040;42.848;23.034;2023-04-07T16:18:21;94878.44;;;6.65;91.30
7990;BME280;4040;42.848;23.034;2023-04-07T16:24:09;94889.47;;;6.53;92.86
7990;BME280;4040;42.848;23.034;2023-04-07T16:29:59;94897.06;;;6.51;94.12
7990;BME280;4040;42.848;23.034;2023-04-07T16:35:48;94911.22;;;6.52;96.35
7990;BME280;4040;42.848;23.034;2023-04-07T16:41:37;94911.28;;;6.59;96.38
7990;BME280;4040;42.848;23.034;2023-04-07T16:47:28;94901.31;;;6.52;92.59
7990;BME280;4040;42.848;23.034;2023-04-07T16:57:38;94911.56;;;6.43;98.85
7990;BME280;4040;42.848;23.034;2023-04-07T17:03:28;94918.38;;;6.37;100.00
7990;BME280;4040;42.848;23.034;2023-04-07T17:09:17;94919.88;;;6.31;100.00
7990;BME280;4040;42.848;23.034;2023-04-07T17:15:07;94914.09;;;6.22;100.00
7990;BME280;4040;42.848;23.034;2023-04-07T17:20:57;94926.31;;;6.23;100.00
7990;BME280;4040;42.848;23.034;2023-04-07T17:26:45;94932.84;;;6.26;100.00
7990;BME280;4040;42.848;23.034;2023-04-07T17:32:34;94940.06;;;6.25;100.00
7990;BME280;4040;42.848;23.034;2023-04-07T17:38:24;94950.09;;;6.35;100.00
7990;BME280;4040;42.848;23.034;2023-04-07T17:44:13;94955.16;;;6.00;100.00
7990;BME280;4040;42.848;23.034;2023-04-07T17:50:02;94962.69;;;5.91;100.00
7990;BME280;4040;42.848;23.034;2023-04-07T18:00:14;94983.41;;;6.01;100.00
7990;BME280;4040;42.848;23.034;2023-04-07T18:06:03;94976.94;;;5.69;100.00
7990;BME280;4040;42.848;23.034;2023-04-07T18:11:52;94989.38;;;5.88;100.00
7990;BME280;4040;42.848;23.034;2023-04-07T18:17:42;94991.69;;;5.89;100.00
7990;BME280;4040;42.848;23.034;2023-04-07T18:23:33;94997.00;;;5.86;100.00
7990;BME280;4040;42.848;23.034;2023-04-07T18:29:22;95010.56;;;5.70;100.00
7990;BME280;4040;42.848;23.034;2023-04-07T18:35:13;95006.13;;;5.81;100.00
7990;BME280;4040;42.848;23.034;2023-04-07T18:41:02;95009.84;;;5.77;100.00
7990;BME280;4040;42.848;23.034;2023-04-07T18:46:51;95008.28;;;5.72;100.00
7990;BME280;4040;42.848;23.034;2023-04-07T18:52:41;95020.09;;;6.04;100.00
7990;BME280;4040;42.848;23.034;2023-04-07T19:02:51;94999.25;;;5.80;100.00
7990;BME280;4040;42.848;23.034;2023-04-07T19:08:42;94995.03;;;5.79;100.00
7990;BME280;4040;42.848;23.034;2023-04-07T19:14:30;95016.81;;;5.81;100.00
7990;BME280;4040;42.848;23.034;2023-04-07T19:20:19;95026.97;;;5.72;100.00
7990;BME280;4040;42.848;23.034;2023-04-07T19:26:10;95031.09;;;5.66;100.00
7990;BME280;4040;42.848;23.034;2023-04-07T19:31:59;95037.31;;;5.74;100.00
7990;BME280;4040;42.848;23.034;2023-04-07T19:37:48;95030.78;;;5.71;100.00
7990;BME280;4040;42.848;23.034;2023-04-07T19:43:39;95025.50;;;5.45;100.00
7990;BME280;4040;42.848;23.034;2023-04-07T19:49:28;95031.97;;;5.44;100.00
7990;BME280;4040;42.848;23.034;2023-04-07T19:55:17;95030.16;;;5.52;100.00
7990;BME280;4040;42.848;23.034;2023-04-07T20:05:30;95036.19;;;5.45;100.00
7990;BME280;4040;42.848;23.034;2023-04-07T20:11:19;95035.47;;;5.48;100.00
7990;BME280;4040;42.848;23.034;2023-04-07T20:17:08;95031.56;;;5.42;100.00
7990;BME280;4040;42.848;23.034;2023-04-07T20:22:58;95043.28;;;5.34;100.00
7990;BME280;4040;42.848;23.034;2023-04-07T20:28:47;95052.75;;;5.28;100.00
7990;BME280;4040;42.848;23.034;2023-04-07T20:34:36;95054.25;;;5.26;100.00
7990;BME280;4040;42.848;23.034;2023-04-07T20:40:26;95056.34;;;5.39;100.00
7990;BME280;4040;42.848;23.034;2023-04-07T20:46:14;95060.50;;;5.37;100.00
7990;BME280;4040;42.848;23.034;2023-04-07T20:52:03;95064.25;;;5.32;100.00
7990;BME280;4040;42.848;23.034;2023-04-07T20:57:54;95056.19;;;5.29;100.00
7990;BME280;4040;42.848;23.034;2023-04-07T21:08:04;95061.94;;;4.79;100.00
7990;BME280;4040;42.848;23.034;2023-04-07T21:13:55;95069.91;;;4.76;100.00
7990;BME280;4040;42.848;23.034;2023-04-07T21:19:43;95065.09;;;4.40;100.00
7990;BME280;4040;42.848;23.034;2023-04-07T21:25:32;95057.84;;;4.37;100.00
7990;BME280;4040;42.848;23.034;2023-04-07T21:31:23;95059.25;;;4.76;100.00
7990;BME280;4040;42.848;23.034;2023-04-07T21:37:12;95058.19;;;4.58;100.00
7990;BME280;4040;42.848;23.034;2023-04-07T21:43:01;95038.44;;;4.40;100.00
7990;BME280;4040;42.848;23.034;2023-04-07T21:48:51;95036.44;;;4.82;100.00
7990;BME280;4040;42.848;23.034;2023-04-07T21:54:39;95044.75;;;5.02;100.00
7990;BME280;4040;42.848;23.034;2023-04-07T22:08:31;95052.53;;;4.63;100.00
7990;BME280;4040;42.848;23.034;2023-04-07T22:14:19;95050.25;;;4.61;100.00
7990;BME280;4040;42.848;23.034;2023-04-07T22:20:11;95051.53;;;4.48;100.00
7990;BME280;4040;42.848;23.034;2023-04-07T22:26:01;95050.44;;;4.75;100.00
7990;BME280;4040;42.848;23.034;2023-04-07T22:31:49;95043.63;;;4.78;100.00
7990;BME280;4040;42.848;23.034;2023-04-07T22:37:38;95047.31;;;4.70;100.00
7990;BME280;4040;42.848;23.034;2023-04-07T22:43:29;95048.03;;;4.67;100.00
7990;BME280;4040;42.848;23.034;2023-04-07T22:49:17;95037.38;;;4.67;100.00
7990;BME280;4040;42.848;23.034;2023-04-07T22:55:07;95044.13;;;4.61;100.00
7990;BME280;4040;42.848;23.034;2023-04-07T23:00:57;95045.97;;;4.57;100.00
7990;BME280;4040;42.848;23.034;2023-04-07T23:11:08;95043.31;;;4.57;100.00
7990;BME280;4040;42.848;23.034;2023-04-07T23:16:58;95033.56;;;4.68;100.00
7990;BME280;4040;42.848;23.034;2023-04-07T23:22:47;95024.31;;;4.62;100.00
7990;BME280;4040;42.848;23.034;2023-04-07T23:28:35;95028.00;;;4.54;100.00
7990;BME280;4040;42.848;23.034;2023-04-07T23:34:26;95021.59;;;4.58;100.00
7990;BME280;4040;42.848;23.034;2023-04-07T23:40:14;94993.44;;;4.35;100.00
7990;BME280;4040;42.848;23.034;2023-04-07T23:46:03;95006.66;;;4.54;100.00
7990;BME280;4040;42.848;23.034;2023-04-07T23:51:54;95012.00;;;4.54;100.00
7990;BME280;4040;42.848;23.034;2023-04-07T23:57:42;95022.78;;;4.61;100.00
